sensor_id;sensor_type;location;lat;lon;timestamp;P1;durP1;ratioP1;P2;durP2;ratioP2
20478;SDS011;10398;52.490;13.434;2022-12-18T00:00:46;13.90;;;4.40;;
20478;SDS011;10398;52.490;13.434;2022-12-18T00:03:12;22.53;;;8.00;;
20478;SDS011;10398;52.490;13.434;2022-12-18T00:05:48;15.40;;;6.30;;
20478;SDS011;10398;52.490;13.434;2022-12-18T00:08:14;25.53;;;7.57;;
20478;SDS011;10398;52.490;13.434;2022-12-18T00:10:40;24.13;;;7.03;;
20478;SDS011;10398;52.490;13.434;2022-12-18T00:13:06;21.83;;;8.50;;
20478;SDS011;10398;52.490;13.434;2022-12-18T00:15:33;21.53;;;7.77;;
20478;SDS011;10398;52.490;13.434;2022-12-18T00:17:59;17.13;;;6.30;;
20478;SDS011;10398;52.490;13.434;2022-12-18T00:20:25;19.50;;;8.00;;
20478;SDS011;10398;52.490;13.434;2022-12-18T00:22:51;14.63;;;5.73;;
20478;SDS011;10398;52.490;13.434;2022-12-18T00:25:17;18.47;;;6.10;;
20478;SDS011;10398;52.490;13.434;2022-12-18T00:27:43;32.47;;;7.93;;
20478;SDS011;10398;52.490;13.434;2022-12-18T00:30:09;10.77;;;4.30;;
20478;SDS011;10398;52.490;13.434;2022-12-18T00:32:35;19.00;;;5.97;;
20478;SDS011;10398;52.490;13.434;2022-12-18T00:35:02;16.03;;;5.23;;
20478;SDS011;10398;52.490;13.434;2022-12-18T00:37:28;15.27;;;6.53;;
20478;SDS011;10398;52.490;13.434;2022-12-18T00:39:53;21.33;;;4.67;;
20478;SDS011;10398;52.490;13.434;2022-12-18T00:42:19;16.97;;;4.90;;
20478;SDS011;10398;52.490;13.434;2022-12-18T00:45:03;21.43;;;6.30;;
20478;SDS011;10398;52.490;13.434;2022-12-18T00:47:29;19.03;;;5.90;;
20478;SDS011;10398;52.490;13.434;2022-12-18T00:49:55;16.63;;;5.53;;
20478;SDS011;10398;52.490;13.434;2022-12-18T00:52:21;26.03;;;6.93;;
20478;SDS011;10398;52.490;13.434;2022-12-18T00:54:46;19.20;;;7.33;;
20478;SDS011;10398;52.490;13.434;2022-12-18T00:57:12;17.07;;;6.90;;
20478;SDS011;10398;52.490;13.434;2022-12-18T00:59:37;28.97;;;6.37;;
20478;SDS011;10398;52.490;13.434;2022-12-18T01:02:03;19.10;;;6.37;;
20478;SDS011;10398;52.490;13.434;2022-12-18T01:04:31;19.10;;;6.10;;
20478;SDS011;10398;52.490;13.434;2022-12-18T01:06:57;17.53;;;5.00;;
20478;SDS011;10398;52.490;13.434;2022-12-18T01:09:23;17.43;;;6.77;;
20478;SDS011;10398;52.490;13.434;2022-12-18T01:11:48;13.60;;;4.63;;
20478;SDS011;10398;52.490;13.434;2022-12-18T01:14:14;29.23;;;8.90;;
20478;SDS011;10398;52.490;13.434;2022-12-18T01:16:40;33.73;;;9.97;;
20478;SDS011;10398;52.490;13.434;2022-12-18T01:19:05;29.33;;;10.07;;
20478;SDS011;10398;52.490;13.434;2022-12-18T01:21:31;31.13;;;10.03;;
20478;SDS011;10398;52.490;13.434;2022-12-18T01:23:57;34.53;;;10.47;;
20478;SDS011;10398;52.490;13.434;2022-12-18T01:26:23;35.33;;;10.90;;
20478;SDS011;10398;52.490;13.434;2022-12-18T01:28:49;33.53;;;9.83;;
20478;SDS011;10398;52.490;13.434;2022-12-18T01:34:02;39.90;;;11.60;;
20478;SDS011;10398;52.490;13.434;2022-12-18T01:36:30;39.37;;;11.50;;
20478;SDS011;10398;52.490;13.434;2022-12-18T01:39:01;39.07;;;12.13;;
20478;SDS011;10398;52.490;13.434;2022-12-18T01:41:35;44.23;;;12.03;;
20478;SDS011;10398;52.490;13.434;2022-12-18T01:47:12;32.83;;;11.10;;
20478;SDS011;10398;52.490;13.434;2022-12-18T01:49:43;43.17;;;11.83;;
20478;SDS011;10398;52.490;13.434;2022-12-18T01:52:08;44.37;;;12.77;;
20478;SDS011;10398;52.490;13.434;2022-12-18T01:54:34;49.87;;;14.60;;
20478;SDS011;10398;52.490;13.434;2022-12-18T01:57:00;49.10;;;14.20;;
20478;SDS011;10398;52.490;13.434;2022-12-18T01:59:26;54.97;;;14.83;;
20478;SDS011;10398;52.490;13.434;2022-12-18T02:01:52;53.87;;;14.77;;
20478;SDS011;10398;52.490;13.434;2022-12-18T02:06:44;47.53;;;13.40;;
20478;SDS011;10398;52.490;13.434;2022-12-18T02:09:12;53.77;;;15.47;;
20478;SDS011;10398;52.490;13.434;2022-12-18T02:14:24;61.50;;;15.67;;
20478;SDS011;10398;52.490;13.434;2022-12-18T02:17:22;45.87;;;12.97;;
20478;SDS011;10398;52.490;13.434;2022-12-18T02:20:20;56.67;;;15.03;;
20478;SDS011;10398;52.490;13.434;2022-12-18T02:26:04;59.47;;;16.20;;
20478;SDS011;10398;52.490;13.434;2022-12-18T02:28:42;61.03;;;15.13;;
20478;SDS011;10398;52.490;13.434;2022-12-18T02:31:14;69.50;;;16.93;;
20478;SDS011;10398;52.490;13.434;2022-12-18T02:33:44;60.50;;;15.27;;
20478;SDS011;10398;52.490;13.434;2022-12-18T02:36:11;66.17;;;15.33;;
20478;SDS011;10398;52.490;13.434;2022-12-18T02:38:39;65.00;;;16.97;;
20478;SDS011;10398;52.490;13.434;2022-12-18T02:41:07;70.60;;;16.77;;
20478;SDS011;10398;52.490;13.434;2022-12-18T02:43:33;63.50;;;16.83;;
20478;SDS011;10398;52.490;13.434;2022-12-18T02:45:59;52.20;;;14.37;;
20478;SDS011;10398;52.490;13.434;2022-12-18T02:48:45;33.93;;;11.00;;
20478;SDS011;10398;52.490;13.434;2022-12-18T02:51:22;31.07;;;10.83;;
20478;SDS011;10398;52.490;13.434;2022-12-18T02:54:06;44.83;;;10.60;;
20478;SDS011;10398;52.490;13.434;2022-12-18T02:56:46;35.77;;;11.37;;
20478;SDS011;10398;52.490;13.434;2022-12-18T02:59:21;36.77;;;9.60;;
20478;SDS011;10398;52.490;13.434;2022-12-18T03:05:07;47.03;;;12.80;;
20478;SDS011;10398;52.490;13.434;2022-12-18T03:07:49;65.70;;;16.60;;
20478;SDS011;10398;52.490;13.434;2022-12-18T03:10:23;61.57;;;16.47;;
20478;SDS011;10398;52.490;13.434;2022-12-18T03:12:54;64.53;;;17.17;;
20478;SDS011;10398;52.490;13.434;2022-12-18T03:15:31;57.27;;;15.73;;
20478;SDS011;10398;52.490;13.434;2022-12-18T03:18:06;62.20;;;14.83;;
20478;SDS011;10398;52.490;13.434;2022-12-18T03:20:37;55.53;;;15.17;;
20478;SDS011;10398;52.490;13.434;2022-12-18T03:23:10;49.37;;;14.40;;
20478;SDS011;10398;52.490;13.434;2022-12-18T03:25:41;51.83;;;15.13;;
20478;SDS011;10398;52.490;13.434;2022-12-18T03:28:16;51.87;;;14.10;;
20478;SDS011;10398;52.490;13.434;2022-12-18T03:30:46;52.03;;;14.77;;
20478;SDS011;10398;52.490;13.434;2022-12-18T03:33:16;37.93;;;11.73;;
20478;SDS011;10398;52.490;13.434;2022-12-18T03:35:44;45.47;;;12.47;;
20478;SDS011;10398;52.490;13.434;2022-12-18T03:38:11;22.83;;;7.50;;
20478;SDS011;10398;52.490;13.434;2022-12-18T03:40:43;26.00;;;7.80;;
20478;SDS011;10398;52.490;13.434;2022-12-18T03:43:18;32.27;;;8.73;;
20478;SDS011;10398;52.490;13.434;2022-12-18T03:46:02;23.77;;;7.07;;
20478;SDS011;10398;52.490;13.434;2022-12-18T03:49:14;41.93;;;13.37;;
20478;SDS011;10398;52.490;13.434;2022-12-18T03:52:46;37.37;;;11.17;;
20478;SDS011;10398;52.490;13.434;2022-12-18T03:54:55;42.63;;;13.00;;
20478;SDS011;10398;52.490;13.434;2022-12-18T03:57:24;43.60;;;12.33;;
20478;SDS011;10398;52.490;13.434;2022-12-18T03:59:55;42.80;;;11.40;;
20478;SDS011;10398;52.490;13.434;2022-12-18T04:02:29;37.20;;;11.87;;
20478;SDS011;10398;52.490;13.434;2022-12-18T04:04:57;37.60;;;11.20;;
20478;SDS011;10398;52.490;13.434;2022-12-18T04:07:26;40.33;;;10.90;;
20478;SDS011;10398;52.490;13.434;2022-12-18T04:09:53;40.37;;;11.07;;
20478;SDS011;10398;52.490;13.434;2022-12-18T04:12:24;38.40;;;11.17;;
20478;SDS011;10398;52.490;13.434;2022-12-18T04:14:51;33.37;;;10.17;;
20478;SDS011;10398;52.490;13.434;2022-12-18T04:17:17;34.93;;;11.37;;
20478;SDS011;10398;52.490;13.434;2022-12-18T04:19:42;35.97;;;10.00;;
20478;SDS011;10398;52.490;13.434;2022-12-18T04:22:09;43.33;;;11.40;;
20478;SDS011;10398;52.490;13.434;2022-12-18T04:24:35;43.43;;;12.70;;
20478;SDS011;10398;52.490;13.434;2022-12-18T04:27:01;33.03;;;10.73;;
20478;SDS011;10398;52.490;13.434;2022-12-18T04:29:26;38.47;;;12.07;;
20478;SDS011;10398;52.490;13.434;2022-12-18T04:31:53;44.37;;;11.57;;
20478;SDS011;10398;52.490;13.434;2022-12-18T04:34:19;31.03;;;9.57;;
20478;SDS011;10398;52.490;13.434;2022-12-18T04:36:45;37.77;;;10.73;;
20478;SDS011;10398;52.490;13.434;2022-12-18T04:39:11;34.57;;;10.27;;
20478;SDS011;10398;52.490;13.434;2022-12-18T04:41:37;35.30;;;10.37;;
20478;SDS011;10398;52.490;13.434;2022-12-18T04:44:02;35.43;;;10.43;;
20478;SDS011;10398;52.490;13.434;2022-12-18T04:46:29;34.83;;;9.73;;
20478;SDS011;10398;52.490;13.434;2022-12-18T04:48:55;32.47;;;9.17;;
20478;SDS011;10398;52.490;13.434;2022-12-18T04:51:20;35.60;;;10.63;;
20478;SDS011;10398;52.490;13.434;2022-12-18T04:53:46;39.00;;;10.50;;
20478;SDS011;10398;52.490;13.434;2022-12-18T04:56:13;39.63;;;10.83;;
20478;SDS011;10398;52.490;13.434;2022-12-18T04:58:40;38.93;;;10.70;;
20478;SDS011;10398;52.490;13.434;2022-12-18T05:01:07;32.73;;;9.37;;
20478;SDS011;10398;52.490;13.434;2022-12-18T05:03:34;31.77;;;10.07;;
20478;SDS011;10398;52.490;13.434;2022-12-18T05:06:00;33.90;;;9.43;;
20478;SDS011;10398;52.490;13.434;2022-12-18T05:08:26;34.80;;;10.40;;
20478;SDS011;10398;52.490;13.434;2022-12-18T05:11:02;34.37;;;10.73;;
20478;SDS011;10398;52.490;13.434;2022-12-18T05:13:36;35.00;;;10.13;;
20478;SDS011;10398;52.490;13.434;2022-12-18T05:16:03;38.53;;;10.10;;
20478;SDS011;10398;52.490;13.434;2022-12-18T05:18:29;36.47;;;10.70;;
20478;SDS011;10398;52.490;13.434;2022-12-18T05:20:55;45.53;;;11.20;;
20478;SDS011;10398;52.490;13.434;2022-12-18T05:23:22;38.33;;;11.10;;
20478;SDS011;10398;52.490;13.434;2022-12-18T05:25:52;34.97;;;10.73;;
20478;SDS011;10398;52.490;13.434;2022-12-18T05:28:19;36.83;;;11.30;;
20478;SDS011;10398;52.490;13.434;2022-12-18T05:30:52;43.40;;;12.03;;
20478;SDS011;10398;52.490;13.434;2022-12-18T05:33:19;40.13;;;11.33;;
20478;SDS011;10398;52.490;13.434;2022-12-18T05:35:55;39.63;;;12.00;;
20478;SDS011;10398;52.490;13.434;2022-12-18T05:38:23;43.77;;;12.00;;
20478;SDS011;10398;52.490;13.434;2022-12-18T05:40:50;42.47;;;11.77;;
20478;SDS011;10398;52.490;13.434;2022-12-18T05:43:17;52.83;;;13.77;;
20478;SDS011;10398;52.490;13.434;2022-12-18T05:45:44;37.23;;;12.07;;
20478;SDS011;10398;52.490;13.434;2022-12-18T05:48:10;26.07;;;8.60;;
20478;SDS011;10398;52.490;13.434;2022-12-18T05:50:37;25.03;;;7.67;;
20478;SDS011;10398;52.490;13.434;2022-12-18T05:53:04;18.57;;;7.70;;
20478;SDS011;10398;52.490;13.434;2022-12-18T05:55:37;29.63;;;7.90;;
20478;SDS011;10398;52.490;13.434;2022-12-18T05:58:06;32.57;;;7.70;;
20478;SDS011;10398;52.490;13.434;2022-12-18T06:00:33;31.63;;;6.03;;
20478;SDS011;10398;52.490;13.434;2022-12-18T06:03:00;24.23;;;7.87;;
20478;SDS011;10398;52.490;13.434;2022-12-18T06:05:27;21.07;;;6.30;;
20478;SDS011;10398;52.490;13.434;2022-12-18T06:07:52;29.23;;;8.50;;
20478;SDS011;10398;52.490;13.434;2022-12-18T06:10:18;14.43;;;6.53;;
20478;SDS011;10398;52.490;13.434;2022-12-18T06:12:44;28.90;;;7.93;;
20478;SDS011;10398;52.490;13.434;2022-12-18T06:15:10;26.33;;;7.40;;
20478;SDS011;10398;52.490;13.434;2022-12-18T06:17:36;26.80;;;8.83;;
20478;SDS011;10398;52.490;13.434;2022-12-18T06:20:02;29.93;;;7.13;;
20478;SDS011;10398;52.490;13.434;2022-12-18T06:22:30;22.53;;;8.53;;
20478;SDS011;10398;52.490;13.434;2022-12-18T06:24:56;25.20;;;8.53;;
20478;SDS011;10398;52.490;13.434;2022-12-18T06:27:22;22.13;;;8.37;;
20478;SDS011;10398;52.490;13.434;2022-12-18T06:29:48;28.07;;;8.70;;
20478;SDS011;10398;52.490;13.434;2022-12-18T06:32:13;19.00;;;6.87;;
20478;SDS011;10398;52.490;13.434;2022-12-18T06:34:39;27.93;;;9.10;;
20478;SDS011;10398;52.490;13.434;2022-12-18T06:37:05;25.93;;;8.17;;
20478;SDS011;10398;52.490;13.434;2022-12-18T06:39:30;17.77;;;6.97;;
20478;SDS011;10398;52.490;13.434;2022-12-18T06:41:56;25.17;;;8.47;;
20478;SDS011;10398;52.490;13.434;2022-12-18T06:44:21;30.33;;;7.97;;
20478;SDS011;10398;52.490;13.434;2022-12-18T06:46:48;24.47;;;7.30;;
20478;SDS011;10398;52.490;13.434;2022-12-18T06:49:14;21.47;;;7.83;;
20478;SDS011;10398;52.490;13.434;2022-12-18T06:51:41;27.30;;;8.13;;
20478;SDS011;10398;52.490;13.434;2022-12-18T06:54:07;31.53;;;6.67;;
20478;SDS011;10398;52.490;13.434;2022-12-18T06:56:33;33.43;;;7.47;;
20478;SDS011;10398;52.490;13.434;2022-12-18T06:58:59;26.37;;;9.00;;
20478;SDS011;10398;52.490;13.434;2022-12-18T07:01:24;23.80;;;8.00;;
20478;SDS011;10398;52.490;13.434;2022-12-18T07:03:54;29.30;;;6.20;;
20478;SDS011;10398;52.490;13.434;2022-12-18T07:06:21;24.93;;;8.43;;
20478;SDS011;10398;52.490;13.434;2022-12-18T07:08:48;30.17;;;7.97;;
20478;SDS011;10398;52.490;13.434;2022-12-18T07:11:15;20.43;;;7.73;;
20478;SDS011;10398;52.490;13.434;2022-12-18T07:13:42;17.17;;;6.63;;
20478;SDS011;10398;52.490;13.434;2022-12-18T07:16:09;24.60;;;8.90;;
20478;SDS011;10398;52.490;13.434;2022-12-18T07:18:36;20.43;;;6.47;;
20478;SDS011;10398;52.490;13.434;2022-12-18T07:21:05;25.73;;;7.33;;
20478;SDS011;10398;52.490;13.434;2022-12-18T07:23:36;36.57;;;8.90;;
20478;SDS011;10398;52.490;13.434;2022-12-18T07:26:03;20.90;;;6.40;;
20478;SDS011;10398;52.490;13.434;2022-12-18T07:28:31;30.83;;;7.23;;
20478;SDS011;10398;52.490;13.434;2022-12-18T07:30:57;12.77;;;5.63;;
20478;SDS011;10398;52.490;13.434;2022-12-18T07:33:24;20.60;;;6.53;;
20478;SDS011;10398;52.490;13.434;2022-12-18T07:35:50;23.20;;;7.10;;
20478;SDS011;10398;52.490;13.434;2022-12-18T07:38:15;29.47;;;8.17;;
20478;SDS011;10398;52.490;13.434;2022-12-18T07:40:41;28.77;;;6.90;;
20478;SDS011;10398;52.490;13.434;2022-12-18T07:43:06;28.77;;;7.20;;
20478;SDS011;10398;52.490;13.434;2022-12-18T07:45:32;20.47;;;6.90;;
20478;SDS011;10398;52.490;13.434;2022-12-18T07:47:58;26.53;;;7.93;;
20478;SDS011;10398;52.490;13.434;2022-12-18T07:50:23;23.57;;;8.53;;
20478;SDS011;10398;52.490;13.434;2022-12-18T07:52:49;23.53;;;6.70;;
20478;SDS011;10398;52.490;13.434;2022-12-18T07:55:15;16.60;;;6.33;;
20478;SDS011;10398;52.490;13.434;2022-12-18T07:57:40;25.80;;;8.90;;
20478;SDS011;10398;52.490;13.434;2022-12-18T08:00:06;25.90;;;8.93;;
20478;SDS011;10398;52.490;13.434;2022-12-18T08:02:32;17.53;;;7.60;;
20478;SDS011;10398;52.490;13.434;2022-12-18T08:04:58;21.77;;;6.97;;
20478;SDS011;10398;52.490;13.434;2022-12-18T08:07:24;27.03;;;7.93;;
20478;SDS011;10398;52.490;13.434;2022-12-18T08:09:49;18.67;;;7.73;;
20478;SDS011;10398;52.490;13.434;2022-12-18T08:12:15;20.27;;;7.00;;
20478;SDS011;10398;52.490;13.434;2022-12-18T08:14:41;22.03;;;7.23;;
20478;SDS011;10398;52.490;13.434;2022-12-18T08:17:06;21.50;;;7.70;;
20478;SDS011;10398;52.490;13.434;2022-12-18T08:19:32;26.67;;;7.30;;
20478;SDS011;10398;52.490;13.434;2022-12-18T08:21:58;22.13;;;7.23;;
20478;SDS011;10398;52.490;13.434;2022-12-18T08:24:23;11.50;;;4.77;;
20478;SDS011;10398;52.490;13.434;2022-12-18T08:26:49;22.40;;;6.80;;
20478;SDS011;10398;52.490;13.434;2022-12-18T08:29:15;11.33;;;4.57;;
20478;SDS011;10398;52.490;13.434;2022-12-18T08:31:41;18.50;;;8.03;;
20478;SDS011;10398;52.490;13.434;2022-12-18T08:34:07;21.10;;;7.00;;
20478;SDS011;10398;52.490;13.434;2022-12-18T08:36:33;28.57;;;7.77;;
20478;SDS011;10398;52.490;13.434;2022-12-18T08:38:58;17.63;;;6.70;;
20478;SDS011;10398;52.490;13.434;2022-12-18T08:41:24;15.23;;;6.03;;
20478;SDS011;10398;52.490;13.434;2022-12-18T08:43:49;20.33;;;6.43;;
20478;SDS011;10398;52.490;13.434;2022-12-18T08:46:38;17.63;;;7.43;;
20478;SDS011;10398;52.490;13.434;2022-12-18T08:49:05;20.40;;;5.37;;
20478;SDS011;10398;52.490;13.434;2022-12-18T08:51:32;28.37;;;6.77;;
20478;SDS011;10398;52.490;13.434;2022-12-18T08:53:58;21.37;;;5.43;;
20478;SDS011;10398;52.490;13.434;2022-12-18T08:56:24;17.77;;;6.83;;
20478;SDS011;10398;52.490;13.434;2022-12-18T08:58:54;31.67;;;8.33;;
20478;SDS011;10398;52.490;13.434;2022-12-18T09:01:20;23.13;;;6.20;;
20478;SDS011;10398;52.490;13.434;2022-12-18T09:03:46;10.17;;;5.27;;
20478;SDS011;10398;52.490;13.434;2022-12-18T09:06:16;18.33;;;6.37;;
20478;SDS011;10398;52.490;13.434;2022-12-18T09:08:43;18.87;;;6.30;;
20478;SDS011;10398;52.490;13.434;2022-12-18T09:11:14;22.73;;;6.97;;
20478;SDS011;10398;52.490;13.434;2022-12-18T09:13:50;20.70;;;7.47;;
20478;SDS011;10398;52.490;13.434;2022-12-18T09:16:17;17.90;;;5.60;;
20478;SDS011;10398;52.490;13.434;2022-12-18T09:18:44;19.97;;;8.40;;
20478;SDS011;10398;52.490;13.434;2022-12-18T09:21:14;18.77;;;6.10;;
20478;SDS011;10398;52.490;13.434;2022-12-18T09:23:48;16.30;;;6.07;;
20478;SDS011;10398;52.490;13.434;2022-12-18T09:26:18;20.90;;;7.03;;
20478;SDS011;10398;52.490;13.434;2022-12-18T09:28:44;20.97;;;6.37;;
20478;SDS011;10398;52.490;13.434;2022-12-18T09:31:10;30.00;;;8.37;;
20478;SDS011;10398;52.490;13.434;2022-12-18T09:33:40;23.43;;;7.73;;
20478;SDS011;10398;52.490;13.434;2022-12-18T09:36:07;13.80;;;5.60;;
20478;SDS011;10398;52.490;13.434;2022-12-18T09:38:35;19.83;;;7.33;;
20478;SDS011;10398;52.490;13.434;2022-12-18T09:43:46;26.90;;;7.40;;
20478;SDS011;10398;52.490;13.434;2022-12-18T09:46:19;26.10;;;7.03;;
20478;SDS011;10398;52.490;13.434;2022-12-18T09:48:59;40.40;;;11.82;;
20478;SDS011;10398;52.490;13.434;2022-12-18T09:54:24;23.60;;;7.60;;
20478;SDS011;10398;52.490;13.434;2022-12-18T09:56:55;21.10;;;5.70;;
20478;SDS011;10398;52.490;13.434;2022-12-18T09:59:23;28.67;;;8.37;;
20478;SDS011;10398;52.490;13.434;2022-12-18T10:01:51;33.40;;;7.43;;
20478;SDS011;10398;52.490;13.434;2022-12-18T10:04:17;19.90;;;6.50;;
20478;SDS011;10398;52.490;13.434;2022-12-18T10:06:54;20.43;;;6.50;;
20478;SDS011;10398;52.490;13.434;2022-12-18T10:09:28;23.10;;;7.13;;
20478;SDS011;10398;52.490;13.434;2022-12-18T10:12:09;25.77;;;5.83;;
20478;SDS011;10398;52.490;13.434;2022-12-18T10:17:26;21.60;;;6.40;;
20478;SDS011;10398;52.490;13.434;2022-12-18T10:19:59;23.27;;;6.87;;
20478;SDS011;10398;52.490;13.434;2022-12-18T10:25:27;18.80;;;6.67;;
20478;SDS011;10398;52.490;13.434;2022-12-18T10:28:00;19.00;;;7.00;;
20478;SDS011;10398;52.490;13.434;2022-12-18T10:30:37;19.90;;;5.77;;
20478;SDS011;10398;52.490;13.434;2022-12-18T10:33:04;25.70;;;7.30;;
20478;SDS011;10398;52.490;13.434;2022-12-18T10:35:30;20.23;;;6.83;;
20478;SDS011;10398;52.490;13.434;2022-12-18T10:38:06;21.53;;;7.30;;
20478;SDS011;10398;52.490;13.434;2022-12-18T10:40:52;22.20;;;7.77;;
20478;SDS011;10398;52.490;13.434;2022-12-18T10:45:58;21.67;;;8.47;;
20478;SDS011;10398;52.490;13.434;2022-12-18T10:48:28;28.97;;;8.53;;
20478;SDS011;10398;52.490;13.434;2022-12-18T10:50:55;24.50;;;7.43;;
20478;SDS011;10398;52.490;13.434;2022-12-18T10:53:23;26.17;;;8.47;;
20478;SDS011;10398;52.490;13.434;2022-12-18T10:55:51;25.90;;;8.53;;
20478;SDS011;10398;52.490;13.434;2022-12-18T11:03:43;21.20;;;6.67;;
20478;SDS011;10398;52.490;13.434;2022-12-18T11:06:15;20.37;;;7.13;;
20478;SDS011;10398;52.490;13.434;2022-12-18T11:08:43;28.90;;;7.73;;
20478;SDS011;10398;52.490;13.434;2022-12-18T11:11:22;15.57;;;6.33;;
20478;SDS011;10398;52.490;13.434;2022-12-18T11:13:51;33.10;;;7.03;;
20478;SDS011;10398;52.490;13.434;2022-12-18T11:16:25;22.93;;;7.47;;
20478;SDS011;10398;52.490;13.434;2022-12-18T11:18:53;26.00;;;9.47;;
20478;SDS011;10398;52.490;13.434;2022-12-18T11:21:19;21.07;;;7.27;;
20478;SDS011;10398;52.490;13.434;2022-12-18T11:23:51;24.57;;;7.83;;
20478;SDS011;10398;52.490;13.434;2022-12-18T11:26:18;22.17;;;6.97;;
20478;SDS011;10398;52.490;13.434;2022-12-18T11:28:52;15.97;;;6.67;;
20478;SDS011;10398;52.490;13.434;2022-12-18T11:31:32;18.73;;;6.97;;
20478;SDS011;10398;52.490;13.434;2022-12-18T11:34:06;26.93;;;6.73;;
20478;SDS011;10398;52.490;13.434;2022-12-18T11:36:39;24.30;;;6.57;;
20478;SDS011;10398;52.490;13.434;2022-12-18T11:39:53;14.80;;;5.63;;
20478;SDS011;10398;52.490;13.434;2022-12-18T11:42:04;23.43;;;6.37;;
20478;SDS011;10398;52.490;13.434;2022-12-18T11:44:43;19.37;;;5.43;;
20478;SDS011;10398;52.490;13.434;2022-12-18T11:50:16;14.37;;;5.40;;
20478;SDS011;10398;52.490;13.434;2022-12-18T11:52:49;24.63;;;6.40;;
20478;SDS011;10398;52.490;13.434;2022-12-18T11:55:37;19.60;;;6.93;;
20478;SDS011;10398;52.490;13.434;2022-12-18T11:58:21;15.17;;;5.30;;
20478;SDS011;10398;52.490;13.434;2022-12-18T12:00:56;18.90;;;6.00;;
20478;SDS011;10398;52.490;13.434;2022-12-18T12:03:45;33.10;;;7.70;;
20478;SDS011;10398;52.490;13.434;2022-12-18T12:06:38;15.63;;;5.87;;
20478;SDS011;10398;52.490;13.434;2022-12-18T12:09:31;16.60;;;5.50;;
20478;SDS011;10398;52.490;13.434;2022-12-18T12:17:30;17.33;;;5.33;;
20478;SDS011;10398;52.490;13.434;2022-12-18T12:20:22;20.83;;;6.63;;
20478;SDS011;10398;52.490;13.434;2022-12-18T12:25:33;25.70;;;8.17;;
20478;SDS011;10398;52.490;13.434;2022-12-18T12:31:17;18.57;;;6.97;;
20478;SDS011;10398;52.490;13.434;2022-12-18T12:39:31;20.20;;;7.37;;
20478;SDS011;10398;52.490;13.434;2022-12-18T12:42:05;23.67;;;6.07;;
20478;SDS011;10398;52.490;13.434;2022-12-18T12:44:57;22.80;;;6.10;;
20478;SDS011;10398;52.490;13.434;2022-12-18T12:47:27;16.70;;;6.63;;
20478;SDS011;10398;52.490;13.434;2022-12-18T12:49:58;20.97;;;7.27;;
20478;SDS011;10398;52.490;13.434;2022-12-18T12:52:29;17.17;;;6.77;;
20478;SDS011;10398;52.490;13.434;2022-12-18T12:54:59;20.57;;;8.20;;
20478;SDS011;10398;52.490;13.434;2022-12-18T12:57:30;16.73;;;6.80;;
20478;SDS011;10398;52.490;13.434;2022-12-18T13:00:09;18.93;;;6.53;;
20478;SDS011;10398;52.490;13.434;2022-12-18T13:02:48;15.83;;;7.57;;
20478;SDS011;10398;52.490;13.434;2022-12-18T13:08:04;20.07;;;6.93;;
20478;SDS011;10398;52.490;13.434;2022-12-18T13:10:33;22.43;;;7.10;;
20478;SDS011;10398;52.490;13.434;2022-12-18T13:15:41;22.37;;;6.23;;
20478;SDS011;10398;52.490;13.434;2022-12-18T13:28:17;21.70;;;7.23;;
20478;SDS011;10398;52.490;13.434;2022-12-18T13:30:52;27.57;;;10.07;;
20478;SDS011;10398;52.490;13.434;2022-12-18T13:36:03;20.30;;;7.03;;
20478;SDS011;10398;52.490;13.434;2022-12-18T13:38:40;20.00;;;6.07;;
20478;SDS011;10398;52.490;13.434;2022-12-18T13:48:50;21.23;;;7.43;;
20478;SDS011;10398;52.490;13.434;2022-12-18T13:51:27;15.17;;;5.70;;
20478;SDS011;10398;52.490;13.434;2022-12-18T13:53:58;15.07;;;6.57;;
20478;SDS011;10398;52.490;13.434;2022-12-18T13:56:30;19.90;;;7.23;;
20478;SDS011;10398;52.490;13.434;2022-12-18T14:09:42;25.90;;;9.20;;
20478;SDS011;10398;52.490;13.434;2022-12-18T14:12:18;27.53;;;8.10;;
20478;SDS011;10398;52.490;13.434;2022-12-18T14:15:22;27.20;;;9.30;;
20478;SDS011;10398;52.490;13.434;2022-12-18T14:20:26;18.53;;;7.67;;
20478;SDS011;10398;52.490;13.434;2022-12-18T14:22:54;19.20;;;7.27;;
20478;SDS011;10398;52.490;13.434;2022-12-18T14:28:12;14.60;;;6.77;;
20478;SDS011;10398;52.490;13.434;2022-12-18T14:30:43;18.00;;;6.60;;
20478;SDS011;10398;52.490;13.434;2022-12-18T14:33:16;18.03;;;7.30;;
20478;SDS011;10398;52.490;13.434;2022-12-18T14:35:59;15.37;;;7.33;;
20478;SDS011;10398;52.490;13.434;2022-12-18T14:38:37;17.33;;;7.20;;
20478;SDS011;10398;52.490;13.434;2022-12-18T14:41:12;20.13;;;6.67;;
20478;SDS011;10398;52.490;13.434;2022-12-18T14:43:40;15.50;;;6.10;;
20478;SDS011;10398;52.490;13.434;2022-12-18T14:49:47;13.37;;;5.70;;
20478;SDS011;10398;52.490;13.434;2022-12-18T14:52:05;15.73;;;5.37;;
20478;SDS011;10398;52.490;13.434;2022-12-18T14:54:45;10.20;;;5.13;;
20478;SDS011;10398;52.490;13.434;2022-12-18T14:57:18;12.50;;;5.20;;
20478;SDS011;10398;52.490;13.434;2022-12-18T14:59:48;16.73;;;6.57;;
20478;SDS011;10398;52.490;13.434;2022-12-18T15:05:05;14.40;;;7.13;;
20478;SDS011;10398;52.490;13.434;2022-12-18T15:07:41;14.17;;;6.03;;
20478;SDS011;10398;52.490;13.434;2022-12-18T15:10:13;19.80;;;7.23;;
20478;SDS011;10398;52.490;13.434;2022-12-18T15:20:42;12.13;;;5.20;;
20478;SDS011;10398;52.490;13.434;2022-12-18T15:23:28;21.93;;;7.13;;
20478;SDS011;10398;52.490;13.434;2022-12-18T15:26:04;12.93;;;5.83;;
20478;SDS011;10398;52.490;13.434;2022-12-18T15:33:41;15.73;;;6.40;;
20478;SDS011;10398;52.490;13.434;2022-12-18T15:36:14;15.10;;;6.70;;
20478;SDS011;10398;52.490;13.434;2022-12-18T15:38:41;16.87;;;7.27;;
20478;SDS011;10398;52.490;13.434;2022-12-18T15:41:15;19.53;;;6.87;;
20478;SDS011;10398;52.490;13.434;2022-12-18T15:43:43;18.57;;;8.13;;
20478;SDS011;10398;52.490;13.434;2022-12-18T15:46:15;22.40;;;7.97;;
20478;SDS011;10398;52.490;13.434;2022-12-18T15:48:42;23.10;;;7.47;;
20478;SDS011;10398;52.490;13.434;2022-12-18T15:51:16;25.03;;;7.63;;
20478;SDS011;10398;52.490;13.434;2022-12-18T15:53:48;18.80;;;7.03;;
20478;SDS011;10398;52.490;13.434;2022-12-18T15:58:48;16.77;;;7.53;;
20478;SDS011;10398;52.490;13.434;2022-12-18T16:01:14;19.47;;;6.77;;
20478;SDS011;10398;52.490;13.434;2022-12-18T16:03:40;14.80;;;5.53;;
20478;SDS011;10398;52.490;13.434;2022-12-18T16:06:06;13.87;;;6.33;;
20478;SDS011;10398;52.490;13.434;2022-12-18T16:08:33;12.73;;;5.53;;
20478;SDS011;10398;52.490;13.434;2022-12-18T16:10:59;15.20;;;6.27;;
20478;SDS011;10398;52.490;13.434;2022-12-18T16:13:25;24.83;;;6.77;;
20478;SDS011;10398;52.490;13.434;2022-12-18T16:15:50;16.10;;;6.53;;
20478;SDS011;10398;52.490;13.434;2022-12-18T16:18:16;18.83;;;6.63;;
20478;SDS011;10398;52.490;13.434;2022-12-18T16:20:42;21.90;;;6.90;;
20478;SDS011;10398;52.490;13.434;2022-12-18T16:23:07;19.40;;;6.87;;
20478;SDS011;10398;52.490;13.434;2022-12-18T16:25:33;20.47;;;7.27;;
20478;SDS011;10398;52.490;13.434;2022-12-18T16:27:58;13.80;;;5.53;;
20478;SDS011;10398;52.490;13.434;2022-12-18T16:30:25;26.23;;;7.13;;
20478;SDS011;10398;52.490;13.434;2022-12-18T16:32:58;20.10;;;6.33;;
20478;SDS011;10398;52.490;13.434;2022-12-18T16:35:24;16.20;;;7.83;;